Tyner, New York
Current Conditions -  °F | °C
As of 11:53 PM on Saturday 25 Oct 2014 (Local Time) from KBGM Reporting Station
Scattered Clouds Scattered Clouds  
Wind Chill: 10°   Ceiling: Unl
Heat Index: 10°   Visibility: 10mi
Dew Point:   Wind: 7mph
Humidity: 74%   Direction: 230°SW
Pressure: 29.57"   Gusts: NA
Location:  42.4446°N, 75.6311°W
Report Text: KBGM 260353Z AUTO 23006KT 10SM FEW060 SCT075 10/06 A2957 RMK AO2 SLP011 T01000056
Loading
Personal Weather Stations






























Interactive Weather Map
Tropical Storm Tracking
New forecast layout! Learn more

10-Day Weather Forecast

Advertisements
Track Severe Weather on mobile